sensor_id;sensor_type;location;lat;lon;timestamp;P1;durP1;ratioP1;P2;durP2;ratioP2
21581;SDS011;10952;50.836;4.348;2023-02-24T00:00:12;22.97;;;4.40;;
21581;SDS011;10952;50.836;4.348;2023-02-24T00:02:59;23.93;;;4.00;;
21581;SDS011;10952;50.836;4.348;2023-02-24T00:05:33;27.13;;;5.00;;
21581;SDS011;10952;50.836;4.348;2023-02-24T00:08:01;27.03;;;3.67;;
21581;SDS011;10952;50.836;4.348;2023-02-24T00:10:29;27.17;;;4.93;;
21581;SDS011;10952;50.836;4.348;2023-02-24T00:12:58;28.83;;;4.87;;
21581;SDS011;10952;50.836;4.348;2023-02-24T00:15:27;28.93;;;4.43;;
21581;SDS011;10952;50.836;4.348;2023-02-24T00:17:53;28.97;;;4.47;;
21581;SDS011;10952;50.836;4.348;2023-02-24T00:20:25;20.80;;;3.90;;
21581;SDS011;10952;50.836;4.348;2023-02-24T00:22:51;32.93;;;4.47;;
21581;SDS011;10952;50.836;4.348;2023-02-24T00:25:19;23.53;;;4.47;;
21581;SDS011;10952;50.836;4.348;2023-02-24T00:27:52;36.90;;;4.40;;
21581;SDS011;10952;50.836;4.348;2023-02-24T00:30:20;24.87;;;3.93;;
21581;SDS011;10952;50.836;4.348;2023-02-24T00:32:51;28.40;;;5.33;;
21581;SDS011;10952;50.836;4.348;2023-02-24T00:37:45;26.77;;;4.67;;
21581;SDS011;10952;50.836;4.348;2023-02-24T00:42:50;30.93;;;4.63;;
21581;SDS011;10952;50.836;4.348;2023-02-24T00:45:18;24.63;;;4.33;;
21581;SDS011;10952;50.836;4.348;2023-02-24T00:47:46;26.90;;;5.13;;
21581;SDS011;10952;50.836;4.348;2023-02-24T00:52:41;30.60;;;4.40;;
21581;SDS011;10952;50.836;4.348;2023-02-24T00:58:29;21.87;;;3.87;;
21581;SDS011;10952;50.836;4.348;2023-02-24T01:00:59;23.70;;;3.67;;
21581;SDS011;10952;50.836;4.348;2023-02-24T01:03:25;25.17;;;4.17;;
21581;SDS011;10952;50.836;4.348;2023-02-24T01:05:54;31.00;;;4.73;;
21581;SDS011;10952;50.836;4.348;2023-02-24T01:11:00;28.37;;;4.70;;
21581;SDS011;10952;50.836;4.348;2023-02-24T01:13:47;20.73;;;4.10;;
21581;SDS011;10952;50.836;4.348;2023-02-24T01:18:48;26.57;;;4.63;;
21581;SDS011;10952;50.836;4.348;2023-02-24T01:21:18;27.90;;;4.43;;
21581;SDS011;10952;50.836;4.348;2023-02-24T01:26:50;26.97;;;3.90;;
21581;SDS011;10952;50.836;4.348;2023-02-24T01:29:20;24.67;;;3.97;;
21581;SDS011;10952;50.836;4.348;2023-02-24T01:31:52;20.10;;;3.83;;
21581;SDS011;10952;50.836;4.348;2023-02-24T01:34:25;23.83;;;4.03;;
21581;SDS011;10952;50.836;4.348;2023-02-24T01:36:54;29.57;;;4.77;;
21581;SDS011;10952;50.836;4.348;2023-02-24T01:39:23;19.07;;;3.87;;
21581;SDS011;10952;50.836;4.348;2023-02-24T01:41:50;26.97;;;3.50;;
21581;SDS011;10952;50.836;4.348;2023-02-24T01:46:50;24.27;;;4.50;;
21581;SDS011;10952;50.836;4.348;2023-02-24T01:55:09;27.70;;;4.93;;
21581;SDS011;10952;50.836;4.348;2023-02-24T01:57:51;24.10;;;3.87;;
21581;SDS011;10952;50.836;4.348;2023-02-24T02:00:21;27.63;;;5.67;;
21581;SDS011;10952;50.836;4.348;2023-02-24T02:03:29;29.33;;;4.33;;
21581;SDS011;10952;50.836;4.348;2023-02-24T02:06:07;29.20;;;5.57;;
21581;SDS011;10952;50.836;4.348;2023-02-24T02:08:37;22.63;;;4.90;;
21581;SDS011;10952;50.836;4.348;2023-02-24T02:11:13;22.83;;;5.07;;
21581;SDS011;10952;50.836;4.348;2023-02-24T02:32:50;21.10;;;4.20;;
21581;SDS011;10952;50.836;4.348;2023-02-24T02:36:24;21.10;;;3.27;;
21581;SDS011;10952;50.836;4.348;2023-02-24T02:58:47;21.57;;;4.07;;
21581;SDS011;10952;50.836;4.348;2023-02-24T03:01:18;18.97;;;3.67;;
21581;SDS011;10952;50.836;4.348;2023-02-24T03:03:55;21.33;;;3.80;;
21581;SDS011;10952;50.836;4.348;2023-02-24T03:06:29;15.60;;;3.70;;
21581;SDS011;10952;50.836;4.348;2023-02-24T03:09:15;27.67;;;4.27;;
21581;SDS011;10952;50.836;4.348;2023-02-24T03:11:56;22.47;;;3.53;;
21581;SDS011;10952;50.836;4.348;2023-02-24T03:14:31;21.47;;;4.03;;
21581;SDS011;10952;50.836;4.348;2023-02-24T03:19:36;27.43;;;4.20;;
21581;SDS011;10952;50.836;4.348;2023-02-24T03:22:11;23.57;;;4.27;;
21581;SDS011;10952;50.836;4.348;2023-02-24T03:24:42;21.37;;;4.10;;
21581;SDS011;10952;50.836;4.348;2023-02-24T03:27:20;21.73;;;3.40;;
21581;SDS011;10952;50.836;4.348;2023-02-24T03:35:53;20.53;;;3.43;;
21581;SDS011;10952;50.836;4.348;2023-02-24T03:38:26;16.10;;;3.20;;
21581;SDS011;10952;50.836;4.348;2023-02-24T03:40:57;17.27;;;3.57;;
21581;SDS011;10952;50.836;4.348;2023-02-24T03:43:31;21.47;;;3.83;;
21581;SDS011;10952;50.836;4.348;2023-02-24T03:46:04;19.67;;;3.40;;
21581;SDS011;10952;50.836;4.348;2023-02-24T03:48:30;20.43;;;3.30;;
21581;SDS011;10952;50.836;4.348;2023-02-24T03:50:59;19.47;;;3.57;;
21581;SDS011;10952;50.836;4.348;2023-02-24T03:59:44;18.87;;;3.47;;
21581;SDS011;10952;50.836;4.348;2023-02-24T04:09:39;16.47;;;3.23;;
21581;SDS011;10952;50.836;4.348;2023-02-24T04:12:08;15.73;;;3.27;;
21581;SDS011;10952;50.836;4.348;2023-02-24T04:15:02;15.27;;;3.03;;
21581;SDS011;10952;50.836;4.348;2023-02-24T04:17:48;14.77;;;3.10;;
21581;SDS011;10952;50.836;4.348;2023-02-24T04:20:20;20.17;;;3.53;;
21581;SDS011;10952;50.836;4.348;2023-02-24T04:25:22;22.63;;;4.57;;
21581;SDS011;10952;50.836;4.348;2023-02-24T04:27:54;12.97;;;2.53;;
21581;SDS011;10952;50.836;4.348;2023-02-24T04:30:26;23.07;;;2.73;;
21581;SDS011;10952;50.836;4.348;2023-02-24T04:32:57;16.13;;;2.97;;
21581;SDS011;10952;50.836;4.348;2023-02-24T04:35:23;13.13;;;2.43;;
21581;SDS011;10952;50.836;4.348;2023-02-24T04:37:52;11.07;;;2.60;;
21581;SDS011;10952;50.836;4.348;2023-02-24T04:40:19;24.53;;;2.33;;
21581;SDS011;10952;50.836;4.348;2023-02-24T04:42:48;17.23;;;2.43;;
21581;SDS011;10952;50.836;4.348;2023-02-24T04:45:17;20.20;;;3.30;;
21581;SDS011;10952;50.836;4.348;2023-02-24T04:47:47;17.60;;;3.10;;
21581;SDS011;10952;50.836;4.348;2023-02-24T04:50:18;13.77;;;2.60;;
21581;SDS011;10952;50.836;4.348;2023-02-24T04:52:52;15.43;;;3.47;;
21581;SDS011;10952;50.836;4.348;2023-02-24T04:55:20;21.60;;;3.63;;
21581;SDS011;10952;50.836;4.348;2023-02-24T04:57:48;26.10;;;3.83;;
21581;SDS011;10952;50.836;4.348;2023-02-24T05:00:18;21.30;;;3.07;;
21581;SDS011;10952;50.836;4.348;2023-02-24T05:02:48;11.37;;;2.93;;
21581;SDS011;10952;50.836;4.348;2023-02-24T05:05:15;15.17;;;3.07;;
21581;SDS011;10952;50.836;4.348;2023-02-24T05:07:43;21.37;;;3.60;;
21581;SDS011;10952;50.836;4.348;2023-02-24T05:10:13;20.47;;;3.67;;
21581;SDS011;10952;50.836;4.348;2023-02-24T05:12:41;20.13;;;4.70;;
21581;SDS011;10952;50.836;4.348;2023-02-24T05:17:44;21.67;;;4.27;;
21581;SDS011;10952;50.836;4.348;2023-02-24T05:20:16;22.30;;;4.27;;
21581;SDS011;10952;50.836;4.348;2023-02-24T05:23:03;20.17;;;3.90;;
21581;SDS011;10952;50.836;4.348;2023-02-24T05:25:29;15.40;;;3.63;;
21581;SDS011;10952;50.836;4.348;2023-02-24T05:30:33;22.00;;;3.70;;
21581;SDS011;10952;50.836;4.348;2023-02-24T05:35:29;17.87;;;4.03;;
21581;SDS011;10952;50.836;4.348;2023-02-24T05:40:26;16.33;;;3.50;;
21581;SDS011;10952;50.836;4.348;2023-02-24T05:47:57;19.00;;;3.93;;
21581;SDS011;10952;50.836;4.348;2023-02-24T05:52:59;18.23;;;2.90;;
21581;SDS011;10952;50.836;4.348;2023-02-24T05:55:28;12.77;;;3.20;;
21581;SDS011;10952;50.836;4.348;2023-02-24T06:00:27;9.40;;;2.80;;
21581;SDS011;10952;50.836;4.348;2023-02-24T06:05:37;22.67;;;3.70;;
21581;SDS011;10952;50.836;4.348;2023-02-24T06:08:06;31.10;;;4.40;;
21581;SDS011;10952;50.836;4.348;2023-02-24T06:10:38;13.57;;;3.93;;
21581;SDS011;10952;50.836;4.348;2023-02-24T06:15:36;16.63;;;3.67;;
21581;SDS011;10952;50.836;4.348;2023-02-24T06:20:37;18.80;;;3.40;;
21581;SDS011;10952;50.836;4.348;2023-02-24T06:23:05;17.53;;;3.70;;
21581;SDS011;10952;50.836;4.348;2023-02-24T06:25:31;14.43;;;3.27;;
21581;SDS011;10952;50.836;4.348;2023-02-24T06:27:58;13.10;;;3.27;;
21581;SDS011;10952;50.836;4.348;2023-02-24T06:30:28;18.77;;;4.07;;
21581;SDS011;10952;50.836;4.348;2023-02-24T06:32:56;15.93;;;3.13;;
21581;SDS011;10952;50.836;4.348;2023-02-24T06:38:31;18.13;;;3.40;;
21581;SDS011;10952;50.836;4.348;2023-02-24T06:41:04;14.07;;;3.67;;
21581;SDS011;10952;50.836;4.348;2023-02-24T06:46:20;12.43;;;3.87;;
21581;SDS011;10952;50.836;4.348;2023-02-24T06:48:46;17.50;;;3.93;;
21581;SDS011;10952;50.836;4.348;2023-02-24T06:51:14;14.10;;;3.20;;
21581;SDS011;10952;50.836;4.348;2023-02-24T06:53:40;22.87;;;3.20;;
21581;SDS011;10952;50.836;4.348;2023-02-24T06:56:08;13.83;;;3.47;;
21581;SDS011;10952;50.836;4.348;2023-02-24T06:58:47;13.47;;;3.20;;
21581;SDS011;10952;50.836;4.348;2023-02-24T07:01:19;17.93;;;3.50;;
21581;SDS011;10952;50.836;4.348;2023-02-24T07:06:44;17.53;;;3.87;;
21581;SDS011;10952;50.836;4.348;2023-02-24T07:09:17;20.80;;;3.43;;
21581;SDS011;10952;50.836;4.348;2023-02-24T07:11:48;14.03;;;3.00;;
21581;SDS011;10952;50.836;4.348;2023-02-24T07:14:20;22.00;;;3.37;;
21581;SDS011;10952;50.836;4.348;2023-02-24T07:16:50;24.33;;;3.97;;
21581;SDS011;10952;50.836;4.348;2023-02-24T07:19:22;19.03;;;3.97;;
21581;SDS011;10952;50.836;4.348;2023-02-24T07:21:56;16.23;;;4.13;;
21581;SDS011;10952;50.836;4.348;2023-02-24T07:32:23;13.53;;;3.07;;
21581;SDS011;10952;50.836;4.348;2023-02-24T07:34:49;18.57;;;3.60;;
21581;SDS011;10952;50.836;4.348;2023-02-24T07:37:16;16.87;;;4.33;;
21581;SDS011;10952;50.836;4.348;2023-02-24T07:39:47;18.63;;;3.67;;
21581;SDS011;10952;50.836;4.348;2023-02-24T07:42:15;11.53;;;3.13;;
21581;SDS011;10952;50.836;4.348;2023-02-24T07:44:43;15.93;;;3.00;;
21581;SDS011;10952;50.836;4.348;2023-02-24T07:47:10;15.47;;;3.90;;
21581;SDS011;10952;50.836;4.348;2023-02-24T07:49:39;17.90;;;3.50;;
21581;SDS011;10952;50.836;4.348;2023-02-24T07:52:07;32.33;;;4.40;;
21581;SDS011;10952;50.836;4.348;2023-02-24T07:54:33;20.93;;;4.03;;
21581;SDS011;10952;50.836;4.348;2023-02-24T07:59:31;12.57;;;2.93;;
21581;SDS011;10952;50.836;4.348;2023-02-24T08:01:59;12.63;;;3.70;;
21581;SDS011;10952;50.836;4.348;2023-02-24T08:04:29;13.93;;;3.77;;
21581;SDS011;10952;50.836;4.348;2023-02-24T08:06:59;16.63;;;3.50;;
21581;SDS011;10952;50.836;4.348;2023-02-24T08:15:03;20.97;;;3.60;;
21581;SDS011;10952;50.836;4.348;2023-02-24T08:17:47;16.57;;;3.43;;
21581;SDS011;10952;50.836;4.348;2023-02-24T08:20:13;22.50;;;4.43;;
21581;SDS011;10952;50.836;4.348;2023-02-24T08:22:44;12.40;;;4.03;;
21581;SDS011;10952;50.836;4.348;2023-02-24T08:25:12;20.20;;;3.60;;
21581;SDS011;10952;50.836;4.348;2023-02-24T08:30:19;15.63;;;3.70;;
21581;SDS011;10952;50.836;4.348;2023-02-24T08:32:51;18.70;;;3.93;;
21581;SDS011;10952;50.836;4.348;2023-02-24T08:35:38;19.97;;;4.13;;
21581;SDS011;10952;50.836;4.348;2023-02-24T08:38:16;20.83;;;4.77;;
21581;SDS011;10952;50.836;4.348;2023-02-24T08:40:48;17.40;;;4.63;;
21581;SDS011;10952;50.836;4.348;2023-02-24T08:45:58;12.30;;;4.27;;
21581;SDS011;10952;50.836;4.348;2023-02-24T08:48:54;11.63;;;3.50;;
21581;SDS011;10952;50.836;4.348;2023-02-24T08:51:31;19.37;;;3.73;;
21581;SDS011;10952;50.836;4.348;2023-02-24T08:54:09;12.70;;;2.93;;
21581;SDS011;10952;50.836;4.348;2023-02-24T08:56:46;15.47;;;2.97;;
21581;SDS011;10952;50.836;4.348;2023-02-24T08:59:24;13.63;;;3.40;;
21581;SDS011;10952;50.836;4.348;2023-02-24T09:01:59;17.23;;;3.80;;
21581;SDS011;10952;50.836;4.348;2023-02-24T09:04:50;11.63;;;3.10;;
21581;SDS011;10952;50.836;4.348;2023-02-24T09:15:11;17.23;;;5.23;;
21581;SDS011;10952;50.836;4.348;2023-02-24T09:20:09;13.53;;;2.97;;
21581;SDS011;10952;50.836;4.348;2023-02-24T09:23:01;14.73;;;3.30;;
21581;SDS011;10952;50.836;4.348;2023-02-24T09:28:17;14.20;;;3.30;;
21581;SDS011;10952;50.836;4.348;2023-02-24T09:30:53;21.50;;;3.50;;
21581;SDS011;10952;50.836;4.348;2023-02-24T09:33:35;14.03;;;3.60;;
21581;SDS011;10952;50.836;4.348;2023-02-24T09:36:08;12.17;;;2.83;;
21581;SDS011;10952;50.836;4.348;2023-02-24T09:38:51;22.93;;;3.53;;
21581;SDS011;10952;50.836;4.348;2023-02-24T09:44:38;15.70;;;3.17;;
21581;SDS011;10952;50.836;4.348;2023-02-24T09:47:15;18.07;;;3.10;;
21581;SDS011;10952;50.836;4.348;2023-02-24T09:50:02;13.57;;;2.47;;
21581;SDS011;10952;50.836;4.348;2023-02-24T09:52:41;10.97;;;2.30;;
21581;SDS011;10952;50.836;4.348;2023-02-24T10:03:34;12.43;;;3.20;;
21581;SDS011;10952;50.836;4.348;2023-02-24T10:06:25;17.80;;;2.67;;
21581;SDS011;10952;50.836;4.348;2023-02-24T10:09:45;13.73;;;2.80;;
21581;SDS011;10952;50.836;4.348;2023-02-24T10:11:50;13.93;;;3.60;;
21581;SDS011;10952;50.836;4.348;2023-02-24T10:17:07;12.23;;;3.13;;
21581;SDS011;10952;50.836;4.348;2023-02-24T10:19:56;18.47;;;3.20;;
21581;SDS011;10952;50.836;4.348;2023-02-24T10:22:37;8.93;;;2.70;;
21581;SDS011;10952;50.836;4.348;2023-02-24T10:28:13;10.93;;;2.50;;
21581;SDS011;10952;50.836;4.348;2023-02-24T10:34:04;21.47;;;3.67;;
21581;SDS011;10952;50.836;4.348;2023-02-24T10:36:36;17.93;;;3.63;;
21581;SDS011;10952;50.836;4.348;2023-02-24T10:39:19;10.13;;;3.20;;
21581;SDS011;10952;50.836;4.348;2023-02-24T10:41:54;13.60;;;3.20;;
21581;SDS011;10952;50.836;4.348;2023-02-24T10:49:47;14.97;;;2.87;;
21581;SDS011;10952;50.836;4.348;2023-02-24T10:55:27;13.63;;;3.47;;
21581;SDS011;10952;50.836;4.348;2023-02-24T10:58:18;14.67;;;3.07;;
21581;SDS011;10952;50.836;4.348;2023-02-24T11:01:25;16.07;;;3.77;;
21581;SDS011;10952;50.836;4.348;2023-02-24T11:04:12;12.50;;;4.37;;
21581;SDS011;10952;50.836;4.348;2023-02-24T11:10:12;11.40;;;2.97;;
21581;SDS011;10952;50.836;4.348;2023-02-24T11:12:57;12.00;;;3.40;;
21581;SDS011;10952;50.836;4.348;2023-02-24T11:15:47;14.60;;;3.80;;
21581;SDS011;10952;50.836;4.348;2023-02-24T11:18:38;14.77;;;3.50;;
21581;SDS011;10952;50.836;4.348;2023-02-24T11:21:22;13.07;;;3.90;;
21581;SDS011;10952;50.836;4.348;2023-02-24T11:23:55;12.33;;;3.67;;
21581;SDS011;10952;50.836;4.348;2023-02-24T11:26:24;10.37;;;3.37;;
21581;SDS011;10952;50.836;4.348;2023-02-24T11:35:16;13.70;;;3.67;;
21581;SDS011;10952;50.836;4.348;2023-02-24T11:38:10;12.27;;;3.27;;
21581;SDS011;10952;50.836;4.348;2023-02-24T11:41:02;17.23;;;5.30;;
21581;SDS011;10952;50.836;4.348;2023-02-24T11:48:53;13.40;;;3.93;;
21581;SDS011;10952;50.836;4.348;2023-02-24T11:51:29;15.87;;;4.20;;
21581;SDS011;10952;50.836;4.348;2023-02-24T11:54:11;16.27;;;3.63;;
21581;SDS011;10952;50.836;4.348;2023-02-24T11:56:42;11.57;;;3.70;;
21581;SDS011;10952;50.836;4.348;2023-02-24T12:07:50;14.47;;;3.97;;
21581;SDS011;10952;50.836;4.348;2023-02-24T12:16:00;16.67;;;3.47;;
21581;SDS011;10952;50.836;4.348;2023-02-24T12:18:36;15.70;;;3.87;;
21581;SDS011;10952;50.836;4.348;2023-02-24T12:21:19;11.70;;;3.77;;
21581;SDS011;10952;50.836;4.348;2023-02-24T12:23:55;12.93;;;3.57;;
21581;SDS011;10952;50.836;4.348;2023-02-24T12:35:14;14.17;;;3.13;;
21581;SDS011;10952;50.836;4.348;2023-02-24T12:40:57;12.53;;;4.07;;
21581;SDS011;10952;50.836;4.348;2023-02-24T12:44:03;9.27;;;3.57;;
21581;SDS011;10952;50.836;4.348;2023-02-24T12:46:57;19.40;;;3.03;;
21581;SDS011;10952;50.836;4.348;2023-02-24T12:52:40;16.90;;;4.00;;
21581;SDS011;10952;50.836;4.348;2023-02-24T12:55:18;14.90;;;4.10;;
21581;SDS011;10952;50.836;4.348;2023-02-24T13:03:23;17.87;;;4.33;;
21581;SDS011;10952;50.836;4.348;2023-02-24T13:14:11;15.30;;;4.33;;
21581;SDS011;10952;50.836;4.348;2023-02-24T13:17:14;18.73;;;6.23;;
21581;SDS011;10952;50.836;4.348;2023-02-24T13:19:43;15.50;;;5.00;;
21581;SDS011;10952;50.836;4.348;2023-02-24T13:24:40;16.07;;;4.10;;
21581;SDS011;10952;50.836;4.348;2023-02-24T13:27:24;12.07;;;4.47;;
21581;SDS011;10952;50.836;4.348;2023-02-24T13:30:06;13.27;;;4.23;;
21581;SDS011;10952;50.836;4.348;2023-02-24T13:33:20;11.83;;;4.70;;
21581;SDS011;10952;50.836;4.348;2023-02-24T13:35:46;13.10;;;4.80;;
21581;SDS011;10952;50.836;4.348;2023-02-24T13:43:57;15.87;;;5.30;;
21581;SDS011;10952;50.836;4.348;2023-02-24T14:05:00;18.73;;;5.87;;
21581;SDS011;10952;50.836;4.348;2023-02-24T14:10:17;13.50;;;6.50;;
21581;SDS011;10952;50.836;4.348;2023-02-24T14:12:48;17.53;;;8.10;;
21581;SDS011;10952;50.836;4.348;2023-02-24T14:15:18;28.13;;;9.93;;
21581;SDS011;10952;50.836;4.348;2023-02-24T14:18:00;14.47;;;7.63;;
21581;SDS011;10952;50.836;4.348;2023-02-24T14:20:33;18.70;;;8.33;;
21581;SDS011;10952;50.836;4.348;2023-02-24T14:23:18;17.83;;;9.07;;
21581;SDS011;10952;50.836;4.348;2023-02-24T14:25:44;22.43;;;9.13;;
21581;SDS011;10952;50.836;4.348;2023-02-24T14:28:17;16.50;;;7.93;;
21581;SDS011;10952;50.836;4.348;2023-02-24T14:30:51;21.50;;;9.13;;
21581;SDS011;10952;50.836;4.348;2023-02-24T14:33:24;24.13;;;8.63;;
21581;SDS011;10952;50.836;4.348;2023-02-24T14:35:56;24.70;;;10.30;;
21581;SDS011;10952;50.836;4.348;2023-02-24T14:41:22;16.00;;;9.53;;
21581;SDS011;10952;50.836;4.348;2023-02-24T14:43:50;23.13;;;9.90;;
21581;SDS011;10952;50.836;4.348;2023-02-24T14:48:50;15.57;;;7.57;;
21581;SDS011;10952;50.836;4.348;2023-02-24T14:54:05;25.63;;;11.77;;
21581;SDS011;10952;50.836;4.348;2023-02-24T14:56:36;21.90;;;10.13;;
21581;SDS011;10952;50.836;4.348;2023-02-24T15:01:47;19.17;;;9.27;;
21581;SDS011;10952;50.836;4.348;2023-02-24T15:04:33;18.03;;;8.07;;
21581;SDS011;10952;50.836;4.348;2023-02-24T15:07:03;19.97;;;8.87;;
21581;SDS011;10952;50.836;4.348;2023-02-24T15:09:33;17.57;;;8.73;;
21581;SDS011;10952;50.836;4.348;2023-02-24T15:14:47;16.73;;;9.00;;
21581;SDS011;10952;50.836;4.348;2023-02-24T15:17:24;21.77;;;8.97;;
21581;SDS011;10952;50.836;4.348;2023-02-24T15:19:59;20.50;;;9.20;;
21581;SDS011;10952;50.836;4.348;2023-02-24T15:22:27;20.20;;;9.73;;
21581;SDS011;10952;50.836;4.348;2023-02-24T15:24:55;22.20;;;9.93;;
21581;SDS011;10952;50.836;4.348;2023-02-24T15:27:48;18.07;;;8.93;;
21581;SDS011;10952;50.836;4.348;2023-02-24T15:30:29;17.33;;;8.93;;
21581;SDS011;10952;50.836;4.348;2023-02-24T15:33:03;17.40;;;10.00;;
21581;SDS011;10952;50.836;4.348;2023-02-24T15:38:02;14.97;;;9.00;;
21581;SDS011;10952;50.836;4.348;2023-02-24T15:40:34;14.20;;;8.70;;
21581;SDS011;10952;50.836;4.348;2023-02-24T15:43:15;15.33;;;9.17;;
21581;SDS011;10952;50.836;4.348;2023-02-24T15:45:48;13.57;;;6.90;;
21581;SDS011;10952;50.836;4.348;2023-02-24T15:48:25;19.07;;;10.03;;
21581;SDS011;10952;50.836;4.348;2023-02-24T15:51:00;16.83;;;8.77;;
21581;SDS011;10952;50.836;4.348;2023-02-24T15:56:01;17.20;;;9.70;;
21581;SDS011;10952;50.836;4.348;2023-02-24T15:58:36;16.90;;;10.73;;
21581;SDS011;10952;50.836;4.348;2023-02-24T16:01:07;17.53;;;9.73;;
21581;SDS011;10952;50.836;4.348;2023-02-24T16:03:36;20.33;;;10.63;;
21581;SDS011;10952;50.836;4.348;2023-02-24T16:11:12;20.40;;;9.77;;
21581;SDS011;10952;50.836;4.348;2023-02-24T16:13:44;16.97;;;9.30;;
21581;SDS011;10952;50.836;4.348;2023-02-24T16:16:20;19.73;;;8.73;;
21581;SDS011;10952;50.836;4.348;2023-02-24T16:18:47;23.50;;;11.27;;
21581;SDS011;10952;50.836;4.348;2023-02-24T16:21:16;18.07;;;10.87;;
21581;SDS011;10952;50.836;4.348;2023-02-24T16:26:18;19.33;;;9.57;;
21581;SDS011;10952;50.836;4.348;2023-02-24T16:28:52;21.63;;;11.33;;
21581;SDS011;10952;50.836;4.348;2023-02-24T16:31:21;27.20;;;12.87;;
21581;SDS011;10952;50.836;4.348;2023-02-24T16:33:51;18.67;;;10.97;;
21581;SDS011;10952;50.836;4.348;2023-02-24T16:36:21;22.50;;;11.77;;
21581;SDS011;10952;50.836;4.348;2023-02-24T16:41:19;28.57;;;11.83;;
21581;SDS011;10952;50.836;4.348;2023-02-24T16:46:18;20.93;;;11.03;;
21581;SDS011;10952;50.836;4.348;2023-02-24T16:48:51;17.17;;;10.10;;
21581;SDS011;10952;50.836;4.348;2023-02-24T16:51:20;20.33;;;11.23;;
21581;SDS011;10952;50.836;4.348;2023-02-24T16:53:47;22.57;;;11.60;;
21581;SDS011;10952;50.836;4.348;2023-02-24T16:56:15;21.10;;;11.73;;
21581;SDS011;10952;50.836;4.348;2023-02-24T16:58:45;22.30;;;10.73;;
21581;SDS011;10952;50.836;4.348;2023-02-24T17:01:15;19.77;;;11.13;;
21581;SDS011;10952;50.836;4.348;2023-02-24T17:03:44;20.20;;;10.50;;
21581;SDS011;10952;50.836;4.348;2023-02-24T17:06:14;29.00;;;10.43;;
21581;SDS011;10952;50.836;4.348;2023-02-24T17:08:41;21.47;;;8.07;;
21581;SDS011;10952;50.836;4.348;2023-02-24T17:11:10;27.83;;;10.87;;
21581;SDS011;10952;50.836;4.348;2023-02-24T17:13:38;26.83;;;11.03;;
21581;SDS011;10952;50.836;4.348;2023-02-24T17:16:10;21.73;;;9.30;;
21581;SDS011;10952;50.836;4.348;2023-02-24T17:21:05;27.63;;;11.57;;
21581;SDS011;10952;50.836;4.348;2023-02-24T17:23:32;22.67;;;8.67;;
21581;SDS011;10952;50.836;4.348;2023-02-24T17:26:00;23.67;;;9.70;;
21581;SDS011;10952;50.836;4.348;2023-02-24T17:28:30;23.93;;;8.17;;
21581;SDS011;10952;50.836;4.348;2023-02-24T17:31:02;25.63;;;9.87;;
21581;SDS011;10952;50.836;4.348;2023-02-24T17:33:31;25.83;;;9.30;;
21581;SDS011;10952;50.836;4.348;2023-02-24T17:36:00;26.03;;;9.33;;
21581;SDS011;10952;50.836;4.348;2023-02-24T17:40:58;27.87;;;7.87;;
21581;SDS011;10952;50.836;4.348;2023-02-24T17:43:28;20.77;;;6.03;;
21581;SDS011;10952;50.836;4.348;2023-02-24T17:45:56;18.90;;;5.30;;
21581;SDS011;10952;50.836;4.348;2023-02-24T17:48:25;21.57;;;5.13;;
21581;SDS011;10952;50.836;4.348;2023-02-24T17:50:54;12.57;;;3.30;;
21581;SDS011;10952;50.836;4.348;2023-02-24T17:55:59;16.47;;;3.60;;
21581;SDS011;10952;50.836;4.348;2023-02-24T17:58:27;15.40;;;4.80;;
21581;SDS011;10952;50.836;4.348;2023-02-24T18:00:56;21.67;;;5.83;;
21581;SDS011;10952;50.836;4.348;2023-02-24T18:03:23;26.13;;;6.17;;
21581;SDS011;10952;50.836;4.348;2023-02-24T18:05:59;13.97;;;5.23;;
21581;SDS011;10952;50.836;4.348;2023-02-24T18:08:33;20.53;;;4.87;;
21581;SDS011;10952;50.836;4.348;2023-02-24T18:11:00;25.17;;;4.50;;
21581;SDS011;10952;50.836;4.348;2023-02-24T18:13:28;19.13;;;4.80;;
21581;SDS011;10952;50.836;4.348;2023-02-24T18:15:56;23.00;;;4.90;;
21581;SDS011;10952;50.836;4.348;2023-02-24T18:18:22;8.80;;;3.00;;
21581;SDS011;10952;50.836;4.348;2023-02-24T18:25:49;20.03;;;3.77;;
21581;SDS011;10952;50.836;4.348;2023-02-24T18:28:16;18.97;;;4.33;;
21581;SDS011;10952;50.836;4.348;2023-02-24T18:30:42;17.77;;;4.40;;
21581;SDS011;10952;50.836;4.348;2023-02-24T18:33:08;14.90;;;4.53;;
21581;SDS011;10952;50.836;4.348;2023-02-24T18:35:36;12.40;;;3.40;;
21581;SDS011;10952;50.836;4.348;2023-02-24T18:38:02;15.37;;;3.70;;
21581;SDS011;10952;50.836;4.348;2023-02-24T18:40:28;13.00;;;4.60;;
21581;SDS011;10952;50.836;4.348;2023-02-24T18:42:55;16.27;;;4.40;;
21581;SDS011;10952;50.836;4.348;2023-02-24T18:45:23;14.40;;;4.17;;
21581;SDS011;10952;50.836;4.348;2023-02-24T18:47:49;15.70;;;4.50;;
21581;SDS011;10952;50.836;4.348;2023-02-24T18:50:16;19.70;;;4.47;;
21581;SDS011;10952;50.836;4.348;2023-02-24T18:52:44;13.30;;;4.10;;
21581;SDS011;10952;50.836;4.348;2023-02-24T18:55:11;20.40;;;4.80;;
21581;SDS011;10952;50.836;4.348;2023-02-24T18:57:36;16.13;;;4.60;;
21581;SDS011;10952;50.836;4.348;2023-02-24T19:00:05;16.77;;;4.23;;
21581;SDS011;10952;50.836;4.348;2023-02-24T19:02:31;19.43;;;5.20;;
21581;SDS011;10952;50.836;4.348;2023-02-24T19:04:59;18.97;;;4.60;;
21581;SDS011;10952;50.836;4.348;2023-02-24T19:07:25;14.87;;;4.27;;
21581;SDS011;10952;50.836;4.348;2023-02-24T19:09:52;23.67;;;3.87;;
21581;SDS011;10952;50.836;4.348;2023-02-24T19:12:20;12.53;;;4.30;;
21581;SDS011;10952;50.836;4.348;2023-02-24T19:17:34;15.53;;;4.27;;
21581;SDS011;10952;50.836;4.348;2023-02-24T19:22:32;12.27;;;4.03;;
21581;SDS011;10952;50.836;4.348;2023-02-24T19:24:58;15.83;;;4.20;;
21581;SDS011;10952;50.836;4.348;2023-02-24T19:27:27;14.07;;;3.47;;
21581;SDS011;10952;50.836;4.348;2023-02-24T19:29:53;13.27;;;4.00;;
21581;SDS011;10952;50.836;4.348;2023-02-24T19:32:19;11.33;;;3.47;;
21581;SDS011;10952;50.836;4.348;2023-02-24T19:34:48;23.93;;;4.03;;
21581;SDS011;10952;50.836;4.348;2023-02-24T19:37:20;12.37;;;4.03;;
21581;SDS011;10952;50.836;4.348;2023-02-24T19:39:48;15.93;;;3.77;;
21581;SDS011;10952;50.836;4.348;2023-02-24T19:42:13;18.03;;;4.30;;
21581;SDS011;10952;50.836;4.348;2023-02-24T19:44:39;17.47;;;5.07;;
21581;SDS011;10952;50.836;4.348;2023-02-24T19:47:11;12.57;;;4.03;;
21581;SDS011;10952;50.836;4.348;2023-02-24T19:49:39;15.80;;;3.53;;
21581;SDS011;10952;50.836;4.348;2023-02-24T19:52:07;13.67;;;4.07;;
21581;SDS011;10952;50.836;4.348;2023-02-24T19:54:36;18.33;;;3.60;;
21581;SDS011;10952;50.836;4.348;2023-02-24T19:57:08;19.27;;;4.33;;
21581;SDS011;10952;50.836;4.348;2023-02-24T19:59:34;12.23;;;3.70;;
21581;SDS011;10952;50.836;4.348;2023-02-24T20:02:03;14.97;;;4.20;;
21581;SDS011;10952;50.836;4.348;2023-02-24T20:04:42;15.07;;;4.07;;
21581;SDS011;10952;50.836;4.348;2023-02-24T20:09:41;18.50;;;4.07;;
21581;SDS011;10952;50.836;4.348;2023-02-24T20:12:13;13.73;;;3.60;;
21581;SDS011;10952;50.836;4.348;2023-02-24T20:14:42;6.97;;;2.30;;
21581;SDS011;10952;50.836;4.348;2023-02-24T20:17:11;14.17;;;3.10;;
21581;SDS011;10952;50.836;4.348;2023-02-24T20:19:43;13.47;;;3.50;;
21581;SDS011;10952;50.836;4.348;2023-02-24T20:22:11;18.33;;;6.37;;
21581;SDS011;10952;50.836;4.348;2023-02-24T20:24:43;15.27;;;4.20;;
21581;SDS011;10952;50.836;4.348;2023-02-24T20:27:12;23.03;;;5.37;;
21581;SDS011;10952;50.836;4.348;2023-02-24T20:29:38;24.87;;;8.43;;
21581;SDS011;10952;50.836;4.348;2023-02-24T20:32:08;12.40;;;4.03;;
21581;SDS011;10952;50.836;4.348;2023-02-24T20:34:37;16.40;;;3.57;;